sensor_id;sensor_type;location;lat;lon;timestamp;P1;durP1;ratioP1;P2;durP2;ratioP2
62179;SDS011;48172;53.374;10.722;2022-12-05T00:01:39;10.52;;;8.23;;
62179;SDS011;48172;53.374;10.722;2022-12-05T00:04:05;8.90;;;7.22;;
62179;SDS011;48172;53.374;10.722;2022-12-05T00:06:34;9.57;;;7.68;;
62179;SDS011;48172;53.374;10.722;2022-12-05T00:09:02;9.02;;;7.80;;
62179;SDS011;48172;53.374;10.722;2022-12-05T00:11:31;9.45;;;7.82;;
62179;SDS011;48172;53.374;10.722;2022-12-05T00:13:59;8.63;;;7.03;;
62179;SDS011;48172;53.374;10.722;2022-12-05T00:16:27;8.57;;;7.68;;
62179;SDS011;48172;53.374;10.722;2022-12-05T00:18:57;9.90;;;7.80;;
62179;SDS011;48172;53.374;10.722;2022-12-05T00:21:26;9.48;;;7.45;;
62179;SDS011;48172;53.374;10.722;2022-12-05T00:23:54;8.73;;;7.13;;
62179;SDS011;48172;53.374;10.722;2022-12-05T00:26:22;9.13;;;7.35;;
62179;SDS011;48172;53.374;10.722;2022-12-05T00:28:49;8.60;;;7.00;;
62179;SDS011;48172;53.374;10.722;2022-12-05T00:31:17;8.50;;;7.30;;
62179;SDS011;48172;53.374;10.722;2022-12-05T00:33:46;8.55;;;7.07;;
62179;SDS011;48172;53.374;10.722;2022-12-05T00:36:14;7.90;;;6.85;;
62179;SDS011;48172;53.374;10.722;2022-12-05T00:38:45;9.60;;;7.72;;
62179;SDS011;48172;53.374;10.722;2022-12-05T00:41:13;8.18;;;7.18;;
62179;SDS011;48172;53.374;10.722;2022-12-05T00:43:42;8.52;;;7.10;;
62179;SDS011;48172;53.374;10.722;2022-12-05T00:46:13;8.90;;;7.32;;
62179;SDS011;48172;53.374;10.722;2022-12-05T00:48:42;9.13;;;7.45;;
62179;SDS011;48172;53.374;10.722;2022-12-05T00:51:16;9.43;;;7.18;;
62179;SDS011;48172;53.374;10.722;2022-12-05T00:53:45;8.15;;;7.20;;
62179;SDS011;48172;53.374;10.722;2022-12-05T00:56:13;8.45;;;7.53;;
62179;SDS011;48172;53.374;10.722;2022-12-05T00:58:41;8.57;;;7.40;;
62179;SDS011;48172;53.374;10.722;2022-12-05T01:03:43;9.82;;;7.57;;
62179;SDS011;48172;53.374;10.722;2022-12-05T01:06:11;11.20;;;7.75;;
62179;SDS011;48172;53.374;10.722;2022-12-05T01:08:39;9.43;;;7.40;;
62179;SDS011;48172;53.374;10.722;2022-12-05T01:11:06;9.10;;;7.43;;
62179;SDS011;48172;53.374;10.722;2022-12-05T01:13:34;9.30;;;6.93;;
62179;SDS011;48172;53.374;10.722;2022-12-05T01:16:01;9.20;;;7.10;;
62179;SDS011;48172;53.374;10.722;2022-12-05T01:18:28;8.00;;;6.60;;
62179;SDS011;48172;53.374;10.722;2022-12-05T01:20:55;8.98;;;6.93;;
62179;SDS011;48172;53.374;10.722;2022-12-05T01:23:22;8.35;;;6.70;;
62179;SDS011;48172;53.374;10.722;2022-12-05T01:25:50;7.57;;;6.60;;
62179;SDS011;48172;53.374;10.722;2022-12-05T01:28:17;8.55;;;7.38;;
62179;SDS011;48172;53.374;10.722;2022-12-05T01:30:45;8.48;;;6.80;;
62179;SDS011;48172;53.374;10.722;2022-12-05T01:33:13;8.82;;;6.90;;
62179;SDS011;48172;53.374;10.722;2022-12-05T01:35:40;9.65;;;7.65;;
62179;SDS011;48172;53.374;10.722;2022-12-05T01:38:08;8.20;;;7.13;;
62179;SDS011;48172;53.374;10.722;2022-12-05T01:40:36;9.50;;;7.68;;
62179;SDS011;48172;53.374;10.722;2022-12-05T01:43:04;7.78;;;6.85;;
62179;SDS011;48172;53.374;10.722;2022-12-05T01:45:40;9.25;;;6.93;;
62179;SDS011;48172;53.374;10.722;2022-12-05T01:48:10;8.60;;;7.30;;
62179;SDS011;48172;53.374;10.722;2022-12-05T01:50:44;8.10;;;7.03;;
62179;SDS011;48172;53.374;10.722;2022-12-05T01:53:12;8.88;;;7.45;;
62179;SDS011;48172;53.374;10.722;2022-12-05T01:55:40;8.73;;;6.88;;
62179;SDS011;48172;53.374;10.722;2022-12-05T01:58:06;9.40;;;7.80;;
62179;SDS011;48172;53.374;10.722;2022-12-05T02:00:35;7.75;;;6.50;;
62179;SDS011;48172;53.374;10.722;2022-12-05T02:03:03;8.35;;;7.07;;
62179;SDS011;48172;53.374;10.722;2022-12-05T02:05:34;8.90;;;7.43;;
62179;SDS011;48172;53.374;10.722;2022-12-05T02:08:02;10.38;;;7.35;;
62179;SDS011;48172;53.374;10.722;2022-12-05T02:10:34;6.88;;;6.18;;
62179;SDS011;48172;53.374;10.722;2022-12-05T02:24:43;7.78;;;6.88;;
62179;SDS011;48172;53.374;10.722;2022-12-05T02:30:15;8.35;;;6.93;;
62179;SDS011;48172;53.374;10.722;2022-12-05T02:35:36;8.80;;;7.20;;
62179;SDS011;48172;53.374;10.722;2022-12-05T02:38:09;8.07;;;6.78;;
62179;SDS011;48172;53.374;10.722;2022-12-05T02:43:16;8.52;;;6.63;;
62179;SDS011;48172;53.374;10.722;2022-12-05T02:45:47;7.82;;;6.85;;
62179;SDS011;48172;53.374;10.722;2022-12-05T02:48:19;8.32;;;6.95;;
62179;SDS011;48172;53.374;10.722;2022-12-05T02:50:46;8.95;;;6.80;;
62179;SDS011;48172;53.374;10.722;2022-12-05T02:53:15;8.25;;;6.72;;
62179;SDS011;48172;53.374;10.722;2022-12-05T02:55:43;8.73;;;7.00;;
62179;SDS011;48172;53.374;10.722;2022-12-05T02:58:16;9.52;;;7.05;;
62179;SDS011;48172;53.374;10.722;2022-12-05T03:00:48;8.60;;;7.13;;
62179;SDS011;48172;53.374;10.722;2022-12-05T03:03:18;7.97;;;6.88;;
62179;SDS011;48172;53.374;10.722;2022-12-05T03:06:22;9.10;;;7.00;;
62179;SDS011;48172;53.374;10.722;2022-12-05T03:08:44;7.63;;;6.45;;
62179;SDS011;48172;53.374;10.722;2022-12-05T03:11:15;8.10;;;6.63;;
62179;SDS011;48172;53.374;10.722;2022-12-05T03:13:47;9.48;;;7.20;;
62179;SDS011;48172;53.374;10.722;2022-12-05T03:16:25;10.55;;;7.43;;
62179;SDS011;48172;53.374;10.722;2022-12-05T03:19:00;9.32;;;7.22;;
62179;SDS011;48172;53.374;10.722;2022-12-05T03:24:16;7.97;;;6.45;;
62179;SDS011;48172;53.374;10.722;2022-12-05T03:26:45;9.15;;;6.63;;
62179;SDS011;48172;53.374;10.722;2022-12-05T03:32:25;8.35;;;6.78;;
62179;SDS011;48172;53.374;10.722;2022-12-05T03:35:09;8.63;;;7.15;;
62179;SDS011;48172;53.374;10.722;2022-12-05T03:37:52;9.07;;;6.88;;
62179;SDS011;48172;53.374;10.722;2022-12-05T03:43:28;7.78;;;6.95;;
62179;SDS011;48172;53.374;10.722;2022-12-05T03:51:00;8.32;;;6.93;;
62179;SDS011;48172;53.374;10.722;2022-12-05T03:53:51;8.48;;;6.53;;
62179;SDS011;48172;53.374;10.722;2022-12-05T03:59:31;8.43;;;6.45;;
62179;SDS011;48172;53.374;10.722;2022-12-05T04:02:04;7.72;;;6.35;;
62179;SDS011;48172;53.374;10.722;2022-12-05T04:04:36;8.73;;;6.55;;
62179;SDS011;48172;53.374;10.722;2022-12-05T04:07:08;8.68;;;6.55;;
62179;SDS011;48172;53.374;10.722;2022-12-05T04:09:44;8.07;;;6.35;;
62179;SDS011;48172;53.374;10.722;2022-12-05T04:12:20;9.32;;;7.25;;
62179;SDS011;48172;53.374;10.722;2022-12-05T04:14:51;7.63;;;6.60;;
62179;SDS011;48172;53.374;10.722;2022-12-05T04:17:35;8.75;;;6.45;;
62179;SDS011;48172;53.374;10.722;2022-12-05T04:20:18;7.82;;;6.18;;
62179;SDS011;48172;53.374;10.722;2022-12-05T04:23:04;8.57;;;6.70;;
62179;SDS011;48172;53.374;10.722;2022-12-05T04:25:37;8.82;;;7.00;;
62179;SDS011;48172;53.374;10.722;2022-12-05T04:28:31;8.88;;;6.90;;
62179;SDS011;48172;53.374;10.722;2022-12-05T04:39:05;9.15;;;7.25;;
62179;SDS011;48172;53.374;10.722;2022-12-05T04:41:47;8.15;;;6.22;;
62179;SDS011;48172;53.374;10.722;2022-12-05T04:44:19;7.45;;;6.07;;
62179;SDS011;48172;53.374;10.722;2022-12-05T04:46:50;8.80;;;6.78;;
62179;SDS011;48172;53.374;10.722;2022-12-05T04:49:21;8.98;;;6.90;;
62179;SDS011;48172;53.374;10.722;2022-12-05T04:51:50;7.53;;;6.38;;
62179;SDS011;48172;53.374;10.722;2022-12-05T04:54:20;8.70;;;6.82;;
62179;SDS011;48172;53.374;10.722;2022-12-05T04:56:59;9.50;;;7.68;;
62179;SDS011;48172;53.374;10.722;2022-12-05T04:59:31;8.23;;;6.95;;
62179;SDS011;48172;53.374;10.722;2022-12-05T05:01:59;7.95;;;6.95;;
62179;SDS011;48172;53.374;10.722;2022-12-05T05:04:47;8.40;;;6.63;;
62179;SDS011;48172;53.374;10.722;2022-12-05T05:07:17;8.70;;;6.60;;
62179;SDS011;48172;53.374;10.722;2022-12-05T05:09:44;10.05;;;7.57;;
62179;SDS011;48172;53.374;10.722;2022-12-05T05:12:12;8.70;;;6.57;;
62179;SDS011;48172;53.374;10.722;2022-12-05T05:14:44;8.75;;;6.40;;
62179;SDS011;48172;53.374;10.722;2022-12-05T05:17:10;8.63;;;6.53;;
62179;SDS011;48172;53.374;10.722;2022-12-05T05:19:37;11.05;;;7.07;;
62179;SDS011;48172;53.374;10.722;2022-12-05T05:22:03;9.88;;;7.20;;
62179;SDS011;48172;53.374;10.722;2022-12-05T05:24:30;9.93;;;7.13;;
62179;SDS011;48172;53.374;10.722;2022-12-05T05:26:56;8.80;;;7.00;;
62179;SDS011;48172;53.374;10.722;2022-12-05T05:29:23;7.30;;;6.57;;
62179;SDS011;48172;53.374;10.722;2022-12-05T05:31:49;8.98;;;6.97;;
62179;SDS011;48172;53.374;10.722;2022-12-05T05:34:16;8.68;;;6.70;;
62179;SDS011;48172;53.374;10.722;2022-12-05T05:36:42;12.18;;;8.48;;
62179;SDS011;48172;53.374;10.722;2022-12-05T05:39:13;8.93;;;7.03;;
62179;SDS011;48172;53.374;10.722;2022-12-05T05:41:40;9.90;;;7.03;;
62179;SDS011;48172;53.374;10.722;2022-12-05T05:44:08;10.85;;;7.32;;
62179;SDS011;48172;53.374;10.722;2022-12-05T05:46:38;10.73;;;7.45;;
62179;SDS011;48172;53.374;10.722;2022-12-05T05:49:05;10.95;;;7.25;;
62179;SDS011;48172;53.374;10.722;2022-12-05T05:51:31;10.73;;;7.80;;
62179;SDS011;48172;53.374;10.722;2022-12-05T05:53:58;9.75;;;6.88;;
62179;SDS011;48172;53.374;10.722;2022-12-05T05:56:25;9.65;;;7.10;;
62179;SDS011;48172;53.374;10.722;2022-12-05T05:58:56;9.63;;;6.47;;
62179;SDS011;48172;53.374;10.722;2022-12-05T06:01:27;9.70;;;6.82;;
62179;SDS011;48172;53.374;10.722;2022-12-05T06:03:54;9.38;;;7.47;;
62179;SDS011;48172;53.374;10.722;2022-12-05T06:06:21;9.52;;;7.22;;
62179;SDS011;48172;53.374;10.722;2022-12-05T06:08:48;10.82;;;7.35;;
62179;SDS011;48172;53.374;10.722;2022-12-05T06:11:16;9.02;;;6.75;;
62179;SDS011;48172;53.374;10.722;2022-12-05T06:13:54;10.88;;;7.60;;
62179;SDS011;48172;53.374;10.722;2022-12-05T06:16:21;9.75;;;6.57;;
62179;SDS011;48172;53.374;10.722;2022-12-05T06:18:48;9.48;;;6.63;;
62179;SDS011;48172;53.374;10.722;2022-12-05T06:21:15;9.75;;;7.65;;
62179;SDS011;48172;53.374;10.722;2022-12-05T06:23:42;10.02;;;7.03;;
62179;SDS011;48172;53.374;10.722;2022-12-05T06:26:11;9.43;;;7.13;;
62179;SDS011;48172;53.374;10.722;2022-12-05T06:28:39;10.90;;;7.22;;
62179;SDS011;48172;53.374;10.722;2022-12-05T06:34:02;10.45;;;7.50;;
62179;SDS011;48172;53.374;10.722;2022-12-05T06:36:30;10.50;;;7.60;;
62179;SDS011;48172;53.374;10.722;2022-12-05T06:38:56;10.45;;;7.40;;
62179;SDS011;48172;53.374;10.722;2022-12-05T06:41:24;10.15;;;7.55;;
62179;SDS011;48172;53.374;10.722;2022-12-05T06:43:51;10.85;;;7.32;;
62179;SDS011;48172;53.374;10.722;2022-12-05T06:46:25;10.15;;;7.43;;
62179;SDS011;48172;53.374;10.722;2022-12-05T06:48:52;12.27;;;7.72;;
62179;SDS011;48172;53.374;10.722;2022-12-05T06:51:20;10.85;;;7.38;;
62179;SDS011;48172;53.374;10.722;2022-12-05T06:53:47;12.43;;;8.23;;
62179;SDS011;48172;53.374;10.722;2022-12-05T06:56:14;10.63;;;7.90;;
62179;SDS011;48172;53.374;10.722;2022-12-05T06:58:43;10.70;;;7.25;;
62179;SDS011;48172;53.374;10.722;2022-12-05T07:01:12;10.85;;;7.50;;
62179;SDS011;48172;53.374;10.722;2022-12-05T07:04:02;12.45;;;8.02;;
62179;SDS011;48172;53.374;10.722;2022-12-05T07:06:31;11.32;;;7.85;;
62179;SDS011;48172;53.374;10.722;2022-12-05T07:08:59;10.55;;;7.38;;
62179;SDS011;48172;53.374;10.722;2022-12-05T07:11:26;11.82;;;7.50;;
62179;SDS011;48172;53.374;10.722;2022-12-05T07:13:53;11.60;;;7.90;;
62179;SDS011;48172;53.374;10.722;2022-12-05T07:16:19;11.27;;;7.93;;
62179;SDS011;48172;53.374;10.722;2022-12-05T07:18:46;12.40;;;7.63;;
62179;SDS011;48172;53.374;10.722;2022-12-05T07:21:13;9.93;;;7.45;;
62179;SDS011;48172;53.374;10.722;2022-12-05T07:23:41;11.02;;;7.75;;
62179;SDS011;48172;53.374;10.722;2022-12-05T07:26:10;11.02;;;7.93;;
62179;SDS011;48172;53.374;10.722;2022-12-05T07:28:39;12.02;;;7.70;;
62179;SDS011;48172;53.374;10.722;2022-12-05T07:31:06;11.38;;;8.23;;
62179;SDS011;48172;53.374;10.722;2022-12-05T07:33:35;11.25;;;7.60;;
62179;SDS011;48172;53.374;10.722;2022-12-05T07:36:03;12.77;;;8.65;;
62179;SDS011;48172;53.374;10.722;2022-12-05T07:38:31;12.38;;;7.68;;
62179;SDS011;48172;53.374;10.722;2022-12-05T07:40:58;12.57;;;8.88;;
62179;SDS011;48172;53.374;10.722;2022-12-05T07:43:25;11.70;;;8.07;;
62179;SDS011;48172;53.374;10.722;2022-12-05T07:45:51;11.23;;;7.68;;
62179;SDS011;48172;53.374;10.722;2022-12-05T07:48:18;12.57;;;8.15;;
62179;SDS011;48172;53.374;10.722;2022-12-05T07:50:45;10.50;;;7.50;;
62179;SDS011;48172;53.374;10.722;2022-12-05T07:53:11;12.00;;;7.90;;
62179;SDS011;48172;53.374;10.722;2022-12-05T07:55:38;11.32;;;7.75;;
62179;SDS011;48172;53.374;10.722;2022-12-05T07:58:04;11.48;;;7.78;;
62179;SDS011;48172;53.374;10.722;2022-12-05T08:00:31;11.02;;;7.93;;
62179;SDS011;48172;53.374;10.722;2022-12-05T08:02:58;11.73;;;8.73;;
62179;SDS011;48172;53.374;10.722;2022-12-05T08:05:24;13.07;;;8.52;;
62179;SDS011;48172;53.374;10.722;2022-12-05T08:07:54;12.27;;;7.93;;
62179;SDS011;48172;53.374;10.722;2022-12-05T08:10:20;14.02;;;8.80;;
62179;SDS011;48172;53.374;10.722;2022-12-05T08:12:47;12.70;;;8.27;;
62179;SDS011;48172;53.374;10.722;2022-12-05T08:15:13;14.98;;;8.00;;
62179;SDS011;48172;53.374;10.722;2022-12-05T08:17:40;11.38;;;8.05;;
62179;SDS011;48172;53.374;10.722;2022-12-05T08:20:06;11.63;;;8.30;;
62179;SDS011;48172;53.374;10.722;2022-12-05T08:22:33;11.98;;;7.97;;
62179;SDS011;48172;53.374;10.722;2022-12-05T08:25:00;12.68;;;8.15;;
62179;SDS011;48172;53.374;10.722;2022-12-05T08:27:28;15.05;;;8.07;;
62179;SDS011;48172;53.374;10.722;2022-12-05T08:30:06;13.35;;;8.68;;
62179;SDS011;48172;53.374;10.722;2022-12-05T08:32:35;17.08;;;8.60;;
62179;SDS011;48172;53.374;10.722;2022-12-05T08:35:03;13.18;;;8.35;;
62179;SDS011;48172;53.374;10.722;2022-12-05T08:37:34;11.63;;;7.80;;
62179;SDS011;48172;53.374;10.722;2022-12-05T08:40:03;16.10;;;8.50;;
62179;SDS011;48172;53.374;10.722;2022-12-05T08:42:31;15.95;;;8.82;;
62179;SDS011;48172;53.374;10.722;2022-12-05T08:45:01;11.43;;;7.78;;
62179;SDS011;48172;53.374;10.722;2022-12-05T08:47:35;12.60;;;8.00;;
62179;SDS011;48172;53.374;10.722;2022-12-05T08:50:03;11.40;;;7.93;;
62179;SDS011;48172;53.374;10.722;2022-12-05T08:52:33;13.15;;;8.75;;
62179;SDS011;48172;53.374;10.722;2022-12-05T08:55:02;10.93;;;7.65;;
62179;SDS011;48172;53.374;10.722;2022-12-05T08:57:33;13.43;;;8.57;;
62179;SDS011;48172;53.374;10.722;2022-12-05T09:00:02;12.48;;;7.80;;
62179;SDS011;48172;53.374;10.722;2022-12-05T09:02:32;16.95;;;8.20;;
62179;SDS011;48172;53.374;10.722;2022-12-05T09:05:04;14.27;;;8.43;;
62179;SDS011;48172;53.374;10.722;2022-12-05T09:07:53;12.50;;;7.18;;
62179;SDS011;48172;53.374;10.722;2022-12-05T09:10:19;11.13;;;7.63;;
62179;SDS011;48172;53.374;10.722;2022-12-05T09:12:47;12.40;;;8.38;;
62179;SDS011;48172;53.374;10.722;2022-12-05T09:15:15;12.10;;;8.10;;
62179;SDS011;48172;53.374;10.722;2022-12-05T09:17:42;13.07;;;8.02;;
62179;SDS011;48172;53.374;10.722;2022-12-05T09:20:09;12.57;;;8.15;;
62179;SDS011;48172;53.374;10.722;2022-12-05T09:22:39;15.18;;;8.55;;
62179;SDS011;48172;53.374;10.722;2022-12-05T09:25:06;13.30;;;8.02;;
62179;SDS011;48172;53.374;10.722;2022-12-05T09:27:34;10.35;;;7.75;;
62179;SDS011;48172;53.374;10.722;2022-12-05T09:30:00;13.45;;;8.52;;
62179;SDS011;48172;53.374;10.722;2022-12-05T09:32:27;11.35;;;7.93;;
62179;SDS011;48172;53.374;10.722;2022-12-05T09:34:53;13.77;;;8.73;;
62179;SDS011;48172;53.374;10.722;2022-12-05T09:37:20;11.23;;;7.88;;
62179;SDS011;48172;53.374;10.722;2022-12-05T09:40:05;12.23;;;7.85;;
62179;SDS011;48172;53.374;10.722;2022-12-05T09:45:19;12.68;;;7.85;;
62179;SDS011;48172;53.374;10.722;2022-12-05T10:00:51;10.82;;;7.65;;
62179;SDS011;48172;53.374;10.722;2022-12-05T10:06:27;13.10;;;8.25;;
62179;SDS011;48172;53.374;10.722;2022-12-05T10:14:55;12.97;;;7.77;;
62179;SDS011;48172;53.374;10.722;2022-12-05T10:17:33;13.25;;;7.82;;
62179;SDS011;48172;53.374;10.722;2022-12-05T10:20:04;12.48;;;7.88;;
62179;SDS011;48172;53.374;10.722;2022-12-05T10:22:46;10.38;;;7.80;;
62179;SDS011;48172;53.374;10.722;2022-12-05T10:25:17;12.00;;;7.65;;
62179;SDS011;48172;53.374;10.722;2022-12-05T10:27:48;12.18;;;8.68;;
62179;SDS011;48172;53.374;10.722;2022-12-05T10:30:18;12.68;;;7.93;;
62179;SDS011;48172;53.374;10.722;2022-12-05T10:35:18;12.50;;;7.78;;
62179;SDS011;48172;53.374;10.722;2022-12-05T10:37:48;13.63;;;8.48;;
62179;SDS011;48172;53.374;10.722;2022-12-05T10:40:18;12.40;;;8.13;;
62179;SDS011;48172;53.374;10.722;2022-12-05T10:42:46;10.65;;;7.45;;
62179;SDS011;48172;53.374;10.722;2022-12-05T10:45:16;11.85;;;7.97;;
62179;SDS011;48172;53.374;10.722;2022-12-05T10:47:45;12.27;;;8.13;;
62179;SDS011;48172;53.374;10.722;2022-12-05T10:50:18;12.77;;;8.18;;
62179;SDS011;48172;53.374;10.722;2022-12-05T10:52:45;12.50;;;7.25;;
62179;SDS011;48172;53.374;10.722;2022-12-05T10:55:13;11.10;;;7.57;;
62179;SDS011;48172;53.374;10.722;2022-12-05T10:57:43;13.95;;;7.78;;
62179;SDS011;48172;53.374;10.722;2022-12-05T11:00:15;9.95;;;7.47;;
62179;SDS011;48172;53.374;10.722;2022-12-05T11:02:47;11.77;;;7.78;;
62179;SDS011;48172;53.374;10.722;2022-12-05T11:05:15;12.32;;;7.93;;
62179;SDS011;48172;53.374;10.722;2022-12-05T11:07:52;11.70;;;8.10;;
62179;SDS011;48172;53.374;10.722;2022-12-05T11:10:21;12.23;;;7.97;;
62179;SDS011;48172;53.374;10.722;2022-12-05T11:12:54;12.27;;;8.10;;
62179;SDS011;48172;53.374;10.722;2022-12-05T11:15:28;11.45;;;7.53;;
62179;SDS011;48172;53.374;10.722;2022-12-05T11:17:57;10.52;;;7.43;;
62179;SDS011;48172;53.374;10.722;2022-12-05T11:20:43;11.57;;;7.72;;
62179;SDS011;48172;53.374;10.722;2022-12-05T11:23:23;11.75;;;7.28;;
62179;SDS011;48172;53.374;10.722;2022-12-05T11:33:25;11.23;;;6.97;;
62179;SDS011;48172;53.374;10.722;2022-12-05T11:35:54;10.32;;;6.78;;
62179;SDS011;48172;53.374;10.722;2022-12-05T11:38:27;9.98;;;7.00;;
62179;SDS011;48172;53.374;10.722;2022-12-05T11:49:16;10.07;;;6.45;;
62179;SDS011;48172;53.374;10.722;2022-12-05T11:57:39;11.55;;;6.75;;
62179;SDS011;48172;53.374;10.722;2022-12-05T12:22:41;9.80;;;6.80;;
62179;SDS011;48172;53.374;10.722;2022-12-05T12:31:15;9.45;;;6.57;;
62179;SDS011;48172;53.374;10.722;2022-12-05T12:37:07;9.57;;;6.90;;
62179;SDS011;48172;53.374;10.722;2022-12-05T12:42:22;10.70;;;6.97;;
62179;SDS011;48172;53.374;10.722;2022-12-05T12:47:43;9.05;;;6.53;;
62179;SDS011;48172;53.374;10.722;2022-12-05T13:04:31;10.57;;;5.93;;
62179;SDS011;48172;53.374;10.722;2022-12-05T13:07:41;8.70;;;6.50;;
62179;SDS011;48172;53.374;10.722;2022-12-05T13:12:31;9.43;;;6.25;;
62179;SDS011;48172;53.374;10.722;2022-12-05T13:15:04;9.60;;;6.20;;
62179;SDS011;48172;53.374;10.722;2022-12-05T13:17:36;8.80;;;6.30;;
62179;SDS011;48172;53.374;10.722;2022-12-05T13:20:12;8.80;;;6.38;;
62179;SDS011;48172;53.374;10.722;2022-12-05T13:22:41;7.72;;;6.00;;
62179;SDS011;48172;53.374;10.722;2022-12-05T13:25:13;9.00;;;6.10;;
62179;SDS011;48172;53.374;10.722;2022-12-05T13:27:51;8.93;;;5.97;;
62179;SDS011;48172;53.374;10.722;2022-12-05T13:30:20;8.73;;;6.55;;
62179;SDS011;48172;53.374;10.722;2022-12-05T13:32:47;8.93;;;6.57;;
62179;SDS011;48172;53.374;10.722;2022-12-05T13:35:31;8.75;;;6.28;;
62179;SDS011;48172;53.374;10.722;2022-12-05T13:38:22;8.93;;;6.22;;
62179;SDS011;48172;53.374;10.722;2022-12-05T13:41:13;9.30;;;5.85;;
62179;SDS011;48172;53.374;10.722;2022-12-05T13:44:01;8.90;;;6.10;;
62179;SDS011;48172;53.374;10.722;2022-12-05T13:46:38;8.32;;;5.40;;
62179;SDS011;48172;53.374;10.722;2022-12-05T13:52:11;7.63;;;5.75;;
62179;SDS011;48172;53.374;10.722;2022-12-05T13:54:56;8.85;;;6.28;;
62179;SDS011;48172;53.374;10.722;2022-12-05T13:57:45;8.27;;;6.30;;
62179;SDS011;48172;53.374;10.722;2022-12-05T14:11:04;9.13;;;6.07;;
62179;SDS011;48172;53.374;10.722;2022-12-05T14:15:43;7.25;;;5.90;;
62179;SDS011;48172;53.374;10.722;2022-12-05T14:23:48;7.80;;;5.40;;
62179;SDS011;48172;53.374;10.722;2022-12-05T14:32:04;8.00;;;5.20;;
62179;SDS011;48172;53.374;10.722;2022-12-05T14:34:48;8.65;;;5.60;;
62179;SDS011;48172;53.374;10.722;2022-12-05T14:37:25;9.40;;;5.53;;
62179;SDS011;48172;53.374;10.722;2022-12-05T14:39:56;7.35;;;5.13;;
62179;SDS011;48172;53.374;10.722;2022-12-05T14:45:22;6.43;;;4.55;;
62179;SDS011;48172;53.374;10.722;2022-12-05T14:47:54;8.13;;;5.72;;
62179;SDS011;48172;53.374;10.722;2022-12-05T14:55:41;8.00;;;5.10;;
62179;SDS011;48172;53.374;10.722;2022-12-05T14:58:15;7.07;;;5.05;;
62179;SDS011;48172;53.374;10.722;2022-12-05T15:00:53;6.93;;;4.95;;
62179;SDS011;48172;53.374;10.722;2022-12-05T15:03:30;6.60;;;5.07;;
62179;SDS011;48172;53.374;10.722;2022-12-05T15:06:00;5.50;;;4.55;;
62179;SDS011;48172;53.374;10.722;2022-12-05T15:08:31;6.05;;;4.57;;
62179;SDS011;48172;53.374;10.722;2022-12-05T15:11:05;7.10;;;4.88;;
62179;SDS011;48172;53.374;10.722;2022-12-05T15:13:31;7.18;;;4.97;;
62179;SDS011;48172;53.374;10.722;2022-12-05T15:16:05;6.95;;;4.90;;
62179;SDS011;48172;53.374;10.722;2022-12-05T15:18:42;7.00;;;4.93;;
62179;SDS011;48172;53.374;10.722;2022-12-05T15:21:37;6.78;;;4.90;;
62179;SDS011;48172;53.374;10.722;2022-12-05T15:24:04;6.05;;;4.80;;
62179;SDS011;48172;53.374;10.722;2022-12-05T15:31:59;6.95;;;4.85;;
62179;SDS011;48172;53.374;10.722;2022-12-05T15:42:25;6.63;;;5.03;;
62179;SDS011;48172;53.374;10.722;2022-12-05T15:47:40;5.95;;;4.65;;
62179;SDS011;48172;53.374;10.722;2022-12-05T15:50:12;6.97;;;4.75;;
62179;SDS011;48172;53.374;10.722;2022-12-05T15:53:16;6.50;;;4.30;;
62179;SDS011;48172;53.374;10.722;2022-12-05T15:58:53;5.15;;;4.20;;
62179;SDS011;48172;53.374;10.722;2022-12-05T16:01:22;6.43;;;4.70;;
62179;SDS011;48172;53.374;10.722;2022-12-05T16:03:57;6.63;;;4.72;;
62179;SDS011;48172;53.374;10.722;2022-12-05T16:06:34;7.22;;;4.38;;
62179;SDS011;48172;53.374;10.722;2022-12-05T16:09:04;6.25;;;4.53;;
62179;SDS011;48172;53.374;10.722;2022-12-05T16:11:37;5.70;;;4.47;;
62179;SDS011;48172;53.374;10.722;2022-12-05T16:14:04;5.68;;;4.35;;
62179;SDS011;48172;53.374;10.722;2022-12-05T16:16:33;5.38;;;3.90;;
62179;SDS011;48172;53.374;10.722;2022-12-05T16:19:03;6.65;;;4.22;;
62179;SDS011;48172;53.374;10.722;2022-12-05T16:21:32;6.07;;;4.47;;
62179;SDS011;48172;53.374;10.722;2022-12-05T16:24:14;5.30;;;4.10;;
62179;SDS011;48172;53.374;10.722;2022-12-05T16:26:53;6.10;;;4.60;;
62179;SDS011;48172;53.374;10.722;2022-12-05T16:29:25;5.63;;;4.35;;
62179;SDS011;48172;53.374;10.722;2022-12-05T16:31:57;4.97;;;4.13;;
62179;SDS011;48172;53.374;10.722;2022-12-05T16:34:31;5.57;;;3.90;;
62179;SDS011;48172;53.374;10.722;2022-12-05T16:36:58;5.68;;;4.20;;
62179;SDS011;48172;53.374;10.722;2022-12-05T16:39:25;5.28;;;3.95;;
62179;SDS011;48172;53.374;10.722;2022-12-05T16:41:53;5.55;;;4.13;;
62179;SDS011;48172;53.374;10.722;2022-12-05T16:46:57;4.65;;;3.85;;
62179;SDS011;48172;53.374;10.722;2022-12-05T16:54:43;4.72;;;4.03;;
62179;SDS011;48172;53.374;10.722;2022-12-05T16:57:12;4.30;;;3.80;;
62179;SDS011;48172;53.374;10.722;2022-12-05T16:59:39;6.97;;;4.15;;
62179;SDS011;48172;53.374;10.722;2022-12-05T17:02:15;5.03;;;4.00;;
62179;SDS011;48172;53.374;10.722;2022-12-05T17:04:44;4.82;;;3.80;;
62179;SDS011;48172;53.374;10.722;2022-12-05T17:07:12;5.50;;;4.25;;
62179;SDS011;48172;53.374;10.722;2022-12-05T17:09:38;5.45;;;4.10;;
62179;SDS011;48172;53.374;10.722;2022-12-05T17:12:16;5.22;;;3.92;;
62179;SDS011;48172;53.374;10.722;2022-12-05T17:14:48;4.45;;;3.67;;
62179;SDS011;48172;53.374;10.722;2022-12-05T17:17:15;5.72;;;3.72;;
62179;SDS011;48172;53.374;10.722;2022-12-05T17:19:43;4.68;;;4.18;;
62179;SDS011;48172;53.374;10.722;2022-12-05T17:22:10;5.28;;;3.65;;
62179;SDS011;48172;53.374;10.722;2022-12-05T17:24:39;5.28;;;3.80;;
62179;SDS011;48172;53.374;10.722;2022-12-05T17:27:08;5.13;;;4.32;;
62179;SDS011;48172;53.374;10.722;2022-12-05T17:29:36;5.22;;;3.90;;
62179;SDS011;48172;53.374;10.722;2022-12-05T17:32:03;5.03;;;4.13;;
62179;SDS011;48172;53.374;10.722;2022-12-05T17:34:30;4.78;;;4.05;;
62179;SDS011;48172;53.374;10.722;2022-12-05T17:36:56;4.20;;;3.53;;
62179;SDS011;48172;53.374;10.722;2022-12-05T17:39:23;4.60;;;4.00;;
62179;SDS011;48172;53.374;10.722;2022-12-05T17:41:53;4.93;;;3.83;;
62179;SDS011;48172;53.374;10.722;2022-12-05T17:44:20;4.65;;;3.53;;
62179;SDS011;48172;53.374;10.722;2022-12-05T17:46:47;4.88;;;4.22;;
62179;SDS011;48172;53.374;10.722;2022-12-05T17:49:14;5.95;;;3.97;;
62179;SDS011;48172;53.374;10.722;2022-12-05T17:51:42;4.68;;;3.38;;
62179;SDS011;48172;53.374;10.722;2022-12-05T17:54:29;4.72;;;3.60;;
62179;SDS011;48172;53.374;10.722;2022-12-05T17:56:55;4.13;;;3.60;;
62179;SDS011;48172;53.374;10.722;2022-12-05T17:59:22;4.97;;;3.95;;
62179;SDS011;48172;53.374;10.722;2022-12-05T18:01:48;5.15;;;4.00;;
62179;SDS011;48172;53.374;10.722;2022-12-05T18:04:15;4.05;;;3.50;;
62179;SDS011;48172;53.374;10.722;2022-12-05T18:06:48;3.67;;;3.30;;
62179;SDS011;48172;53.374;10.722;2022-12-05T18:09:14;4.25;;;3.67;;
62179;SDS011;48172;53.374;10.722;2022-12-05T18:11:41;4.35;;;3.70;;
62179;SDS011;48172;53.374;10.722;2022-12-05T18:14:07;4.60;;;3.78;;
62179;SDS011;48172;53.374;10.722;2022-12-05T18:16:34;4.85;;;3.78;;
62179;SDS011;48172;53.374;10.722;2022-12-05T18:19:01;4.97;;;3.83;;
62179;SDS011;48172;53.374;10.722;2022-12-05T18:21:27;4.32;;;3.58;;
62179;SDS011;48172;53.374;10.722;2022-12-05T18:23:54;4.18;;;3.50;;
62179;SDS011;48172;53.374;10.722;2022-12-05T18:26:20;4.45;;;3.55;;
62179;SDS011;48172;53.374;10.722;2022-12-05T18:28:47;3.85;;;3.45;;